createdAt,value
2023-02-06T00:00:55.519Z,2.30
2023-02-06T00:04:18.465Z,2.20
2023-02-06T00:07:40.266Z,2.20
2023-02-06T00:11:05.487Z,2.20
2023-02-06T00:14:27.095Z,2.20
2023-02-06T00:17:48.678Z,2.20
2023-02-06T00:21:11.630Z,2.20
2023-02-06T00:24:33.227Z,2.20
2023-02-06T00:27:54.837Z,2.20
2023-02-06T00:31:16.585Z,2.20
2023-02-06T00:34:38.370Z,2.10
2023-02-06T00:38:01.424Z,2.10
2023-02-06T00:41:23.120Z,2.10
2023-02-06T00:44:44.899Z,2.10
2023-02-06T00:48:06.586Z,2.10
2023-02-06T00:51:28.217Z,2.20
2023-02-06T00:54:51.171Z,2.20
2023-02-06T00:58:12.785Z,2.20
2023-02-06T01:01:34.816Z,2.20
2023-02-06T01:04:56.414Z,2.20
2023-02-06T01:08:18.001Z,2.20
2023-02-06T01:11:40.930Z,2.20
2023-02-06T01:15:02.592Z,2.20
2023-02-06T01:18:24.308Z,2.20
2023-02-06T01:21:45.877Z,2.20
2023-02-06T01:25:07.678Z,2.20
2023-02-06T01:28:30.633Z,2.20
2023-02-06T01:31:52.216Z,2.20
2023-02-06T01:35:13.784Z,2.20
2023-02-06T01:38:35.394Z,2.10
2023-02-06T01:41:56.998Z,2.20
2023-02-06T01:45:40.806Z,2.20
2023-02-06T01:49:02.776Z,2.20
2023-02-06T01:52:27.954Z,2.20
2023-02-06T01:55:51.202Z,2.20
2023-02-06T01:59:12.874Z,2.20
2023-02-06T02:02:37.443Z,2.20
2023-02-06T02:06:00.302Z,2.20
2023-02-06T02:09:22.504Z,2.20
2023-02-06T02:12:44.090Z,2.20
2023-02-06T02:16:09.875Z,2.30
2023-02-06T02:19:50.326Z,2.20
2023-02-06T02:23:18.519Z,2.30
2023-02-06T02:26:55.014Z,2.20
2023-02-06T02:30:37.430Z,2.20
2023-02-06T02:34:15.360Z,2.30
2023-02-06T02:37:43.324Z,2.30
2023-02-06T02:41:07.571Z,2.20
2023-02-06T02:44:34.661Z,2.20
2023-02-06T02:47:58.762Z,2.20
2023-02-06T02:51:20.402Z,2.20
2023-02-06T02:54:43.346Z,2.20
2023-02-06T02:58:06.561Z,2.20
2023-02-06T03:01:29.890Z,2.10
2023-02-06T03:04:53.509Z,2.10
2023-02-06T03:08:19.601Z,2.20
2023-02-06T03:11:44.910Z,2.20
2023-02-06T03:15:10.031Z,2.20
2023-02-06T03:18:34.419Z,2.20
2023-02-06T03:21:56.029Z,2.10
2023-02-06T03:25:20.386Z,2.20
2023-02-06T03:28:44.854Z,2.20
2023-02-06T03:32:08.433Z,2.20
2023-02-06T03:35:31.567Z,2.20
2023-02-06T03:38:53.366Z,2.20
2023-02-06T03:42:15.863Z,2.10
2023-02-06T03:45:40.973Z,2.20
2023-02-06T03:49:04.488Z,2.10
2023-02-06T03:52:30.184Z,2.10
2023-02-06T03:55:54.109Z,2.10
2023-02-06T03:59:15.771Z,2.10
2023-02-06T04:02:39.076Z,2.20
2023-02-06T04:06:00.921Z,2.20
2023-02-06T04:09:22.550Z,2.20
2023-02-06T04:12:44.109Z,2.20
2023-02-06T04:16:05.761Z,2.20
2023-02-06T04:19:28.757Z,2.20
2023-02-06T04:22:50.349Z,2.20
2023-02-06T04:26:11.924Z,2.20
2023-02-06T04:29:33.526Z,2.20
2023-02-06T04:32:55.134Z,2.20
2023-02-06T04:36:18.099Z,2.20
2023-02-06T04:39:39.730Z,2.10
2023-02-06T04:43:01.324Z,2.10
2023-02-06T04:46:23.040Z,2.10
2023-02-06T04:49:44.697Z,2.10
2023-02-06T04:53:07.629Z,2.10
2023-02-06T04:56:29.208Z,2.00
2023-02-06T04:59:50.821Z,2.00
2023-02-06T05:03:12.396Z,2.00
2023-02-06T05:06:34.129Z,2.00
2023-02-06T05:09:57.028Z,2.00
2023-02-06T05:13:18.902Z,2.00
2023-02-06T05:16:40.502Z,2.00
2023-02-06T05:20:02.252Z,1.90
2023-02-06T05:23:23.834Z,1.90
2023-02-06T05:26:46.760Z,1.90
2023-02-06T05:30:08.934Z,1.90
2023-02-06T05:33:30.987Z,1.80
2023-02-06T05:36:52.708Z,1.80
2023-02-06T05:40:14.339Z,1.90
2023-02-06T05:43:37.258Z,1.80
2023-02-06T05:46:58.933Z,1.90
2023-02-06T05:50:20.619Z,1.90
2023-02-06T05:53:42.342Z,1.90
2023-02-06T05:57:04.038Z,1.90
2023-02-06T06:00:27.089Z,1.90
2023-02-06T06:03:48.773Z,1.90
2023-02-06T06:07:10.380Z,1.90
2023-02-06T06:10:32.110Z,1.90
2023-02-06T06:13:53.761Z,2.00
2023-02-06T06:17:16.690Z,1.90
2023-02-06T06:20:38.284Z,1.90
2023-02-06T06:23:59.910Z,1.90
2023-02-06T06:27:21.641Z,1.90
2023-02-06T06:30:43.307Z,1.90
2023-02-06T06:34:06.293Z,1.90
2023-02-06T06:37:27.937Z,2.00
2023-02-06T06:40:49.768Z,1.90
2023-02-06T06:44:11.337Z,1.90
2023-02-06T06:47:32.943Z,1.90
2023-02-06T06:50:55.875Z,1.90
2023-02-06T06:54:17.475Z,1.90
2023-02-06T06:57:39.077Z,2.00
2023-02-06T07:01:00.775Z,1.90
2023-02-06T07:04:22.394Z,1.90
2023-02-06T07:07:45.304Z,1.90
2023-02-06T07:11:07.123Z,1.90
2023-02-06T07:14:28.726Z,2.00
2023-02-06T07:17:50.464Z,2.00
2023-02-06T07:21:12.053Z,2.00
2023-02-06T07:24:34.958Z,2.00
2023-02-06T07:27:56.610Z,2.00
2023-02-06T07:31:18.247Z,2.10
2023-02-06T07:34:39.863Z,2.10
2023-02-06T07:38:01.458Z,2.20
2023-02-06T07:41:24.416Z,2.20
2023-02-06T07:44:45.993Z,2.30
2023-02-06T07:48:07.820Z,2.30
2023-02-06T07:51:29.415Z,2.30
2023-02-06T07:54:50.983Z,2.30
2023-02-06T07:58:13.948Z,2.30
2023-02-06T08:01:35.884Z,2.30
2023-02-06T08:04:57.497Z,2.30
2023-02-06T08:08:19.109Z,2.30
2023-02-06T08:11:40.697Z,2.20
2023-02-06T08:15:03.832Z,2.20
2023-02-06T08:18:25.464Z,2.30
2023-02-06T08:21:47.055Z,2.30
2023-02-06T08:25:08.976Z,2.30
2023-02-06T08:28:30.706Z,2.20
2023-02-06T08:31:53.713Z,2.20
2023-02-06T08:35:15.525Z,2.10
2023-02-06T08:38:37.379Z,2.10
2023-02-06T08:41:59.004Z,2.20
2023-02-06T08:45:20.650Z,2.20
2023-02-06T08:48:43.808Z,2.10
2023-02-06T08:52:05.430Z,2.20
2023-02-06T08:55:27.043Z,2.10
2023-02-06T08:58:48.616Z,2.10
2023-02-06T09:02:10.937Z,2.20
2023-02-06T09:05:34.213Z,2.30
2023-02-06T09:08:56.384Z,2.30
2023-02-06T09:12:18.071Z,2.40
2023-02-06T09:15:39.983Z,2.40
2023-02-06T09:19:02.069Z,2.30
2023-02-06T09:22:25.069Z,2.20
2023-02-06T09:25:46.646Z,2.10
2023-02-06T09:29:08.463Z,2.00
2023-02-06T09:32:30.121Z,2.00
2023-02-06T09:36:01.085Z,1.90
2023-02-06T09:39:24.354Z,2.00
2023-02-06T09:42:45.972Z,2.00
2023-02-06T09:46:10.754Z,2.00
2023-02-06T09:49:36.300Z,1.90
2023-02-06T09:53:03.295Z,2.00
2023-02-06T09:56:32.593Z,2.00
2023-02-06T09:59:56.956Z,2.00
2023-02-06T10:03:36.440Z,2.10
2023-02-06T10:07:03.015Z,2.00
2023-02-06T10:10:29.601Z,2.00
2023-02-06T10:13:55.183Z,2.10
2023-02-06T10:17:19.532Z,2.20
2023-02-06T10:20:43.632Z,2.20
2023-02-06T10:24:08.100Z,2.20
2023-02-06T10:27:33.196Z,2.20
2023-02-06T10:31:03.425Z,2.20
2023-02-06T10:34:43.169Z,2.20
2023-02-06T10:38:19.718Z,2.20
2023-02-06T10:41:46.253Z,2.30
2023-02-06T10:45:19.599Z,2.30
2023-02-06T10:48:46.480Z,2.40
2023-02-06T10:52:14.612Z,2.30
2023-02-06T10:55:39.630Z,2.30
2023-02-06T10:59:03.544Z,2.40
2023-02-06T11:02:26.469Z,2.40
2023-02-06T11:05:49.636Z,2.30
2023-02-06T11:09:11.418Z,2.30
2023-02-06T11:12:35.535Z,2.20
2023-02-06T11:16:00.355Z,2.20
2023-02-06T11:19:25.288Z,2.10
2023-02-06T11:22:53.098Z,2.10
2023-02-06T11:26:16.920Z,2.20
2023-02-06T11:29:43.435Z,2.20
2023-02-06T11:33:05.802Z,2.20
2023-02-06T11:36:28.854Z,2.20
2023-02-06T11:39:51.867Z,2.10
2023-02-06T11:43:17.718Z,2.10
2023-02-06T11:46:39.512Z,2.00
2023-02-06T11:50:19.986Z,2.20
2023-02-06T11:53:54.447Z,2.30
2023-02-06T11:57:21.454Z,2.30
2023-02-06T12:00:55.062Z,2.20
2023-02-06T12:04:18.814Z,2.10
2023-02-06T12:07:42.305Z,2.10
2023-02-06T12:11:05.281Z,2.30
2023-02-06T12:14:31.730Z,2.50
2023-02-06T12:17:56.160Z,2.60
2023-02-06T12:21:20.875Z,2.70
2023-02-06T12:24:45.559Z,2.70
2023-02-06T12:28:11.738Z,2.90
2023-02-06T12:31:38.972Z,3.00
2023-02-06T12:35:12.167Z,3.00
2023-02-06T12:38:40.158Z,2.90
2023-02-06T12:42:16.505Z,2.90
2023-02-06T12:45:41.816Z,2.80
2023-02-06T12:49:07.440Z,2.70
2023-02-06T12:52:30.557Z,2.70
2023-02-06T12:55:55.400Z,2.60
2023-02-06T12:59:29.055Z,2.50
2023-02-06T13:03:01.959Z,2.50
2023-02-06T13:06:27.178Z,2.40
2023-02-06T13:09:50.018Z,2.30
2023-02-06T13:13:25.694Z,2.30
2023-02-06T13:16:54.812Z,2.30
2023-02-06T13:20:17.275Z,2.20
2023-02-06T13:23:48.075Z,2.20
2023-02-06T13:27:11.059Z,2.30
2023-02-06T13:30:46.068Z,2.30
2023-02-06T13:34:12.289Z,2.30
2023-02-06T13:37:35.278Z,2.20
2023-02-06T13:41:18.488Z,2.20
2023-02-06T13:44:42.521Z,2.10
2023-02-06T13:48:15.187Z,2.20
2023-02-06T13:51:47.490Z,2.10
2023-02-06T13:55:18.253Z,2.10
2023-02-06T13:58:43.280Z,2.10
2023-02-06T14:02:11.495Z,2.10
2023-02-06T14:05:39.667Z,2.00
2023-02-06T14:09:06.754Z,2.00
2023-02-06T14:12:33.839Z,2.00
2023-02-06T14:15:58.110Z,2.00
2023-02-06T14:19:23.988Z,2.00
2023-02-06T14:22:49.531Z,2.10
2023-02-06T14:26:17.688Z,2.10
2023-02-06T14:29:43.670Z,2.20
2023-02-06T14:33:10.772Z,2.30
2023-02-06T14:36:47.836Z,2.30
2023-02-06T14:40:19.871Z,2.40
2023-02-06T14:43:43.026Z,2.50
2023-02-06T14:47:04.636Z,2.60
2023-02-06T14:50:27.284Z,2.50
2023-02-06T14:53:53.078Z,2.50
2023-02-06T14:57:16.465Z,2.40
2023-02-06T15:00:38.196Z,2.40
2023-02-06T15:04:08.719Z,2.40
2023-02-06T15:07:31.302Z,2.40
2023-02-06T15:10:58.180Z,2.40
2023-02-06T15:14:20.750Z,2.50
2023-02-06T15:17:43.041Z,2.50
2023-02-06T15:21:05.432Z,2.40
2023-02-06T15:24:37.171Z,2.40
2023-02-06T15:28:02.670Z,2.40
2023-02-06T15:31:24.513Z,2.30
2023-02-06T15:34:48.030Z,2.30
2023-02-06T15:38:11.821Z,2.30
2023-02-06T15:41:35.505Z,2.20
2023-02-06T15:44:58.852Z,2.20
2023-02-06T15:48:23.254Z,2.20
2023-02-06T15:51:50.097Z,2.20
2023-02-06T15:55:21.769Z,2.10
2023-02-06T15:58:43.401Z,2.10
2023-02-06T16:02:06.975Z,2.10
2023-02-06T16:05:30.590Z,2.10
2023-02-06T16:08:54.859Z,2.10
2023-02-06T16:12:16.611Z,2.10
2023-02-06T16:15:39.317Z,2.00
2023-02-06T16:19:22.360Z,2.00
2023-02-06T16:22:43.935Z,2.00
2023-02-06T16:26:07.091Z,2.00
2023-02-06T16:29:29.636Z,2.00
2023-02-06T16:32:51.503Z,2.00
2023-02-06T16:36:15.597Z,2.00
2023-02-06T16:39:37.233Z,2.00
2023-02-06T16:43:00.059Z,2.00
2023-02-06T16:46:21.777Z,2.00
2023-02-06T16:49:43.652Z,2.00
2023-02-06T16:53:10.830Z,2.00
2023-02-06T16:56:32.421Z,2.00
2023-02-06T16:59:54.008Z,1.90
2023-02-06T17:03:16.365Z,1.90
2023-02-06T17:06:38.169Z,1.90
2023-02-06T17:10:01.276Z,1.90
2023-02-06T17:13:23.969Z,1.80
2023-02-06T17:16:45.822Z,1.80
2023-02-06T17:20:08.373Z,1.80
2023-02-06T17:23:29.967Z,1.70
2023-02-06T17:26:52.984Z,1.80
2023-02-06T17:30:16.733Z,1.70
2023-02-06T17:33:38.601Z,1.70
2023-02-06T17:37:00.868Z,1.80
2023-02-06T17:40:23.694Z,1.80
2023-02-06T17:43:46.682Z,1.80
2023-02-06T17:47:08.370Z,1.80
2023-02-06T17:50:30.143Z,1.80
2023-02-06T17:53:51.736Z,1.70
2023-02-06T17:57:13.386Z,1.80
2023-02-06T18:00:36.657Z,1.80
2023-02-06T18:03:58.407Z,1.80
2023-02-06T18:07:20.093Z,1.80
2023-02-06T18:10:41.686Z,1.80
2023-02-06T18:14:04.179Z,1.70
2023-02-06T18:17:27.134Z,1.70
2023-02-06T18:20:48.972Z,1.70
2023-02-06T18:24:10.554Z,1.70
2023-02-06T18:27:32.128Z,1.70
2023-02-06T18:30:53.919Z,1.70
2023-02-06T18:34:18.511Z,1.70
2023-02-06T18:37:41.395Z,1.70
2023-02-06T18:41:03.721Z,1.70
2023-02-06T18:44:25.342Z,1.70
2023-02-06T18:47:47.292Z,1.70
2023-02-06T18:51:10.235Z,1.70
2023-02-06T18:54:31.821Z,1.70
2023-02-06T18:57:53.587Z,1.70
2023-02-06T19:01:16.461Z,1.70
2023-02-06T19:04:38.057Z,1.70
2023-02-06T19:08:01.060Z,1.70
2023-02-06T19:11:24.046Z,1.70
2023-02-06T19:14:45.792Z,1.60
2023-02-06T19:18:08.089Z,1.50
2023-02-06T19:21:29.713Z,1.50
2023-02-06T19:24:53.033Z,1.40
2023-02-06T19:28:14.848Z,1.40
2023-02-06T19:31:36.659Z,1.40
2023-02-06T19:35:00.955Z,1.40
2023-02-06T19:38:43.886Z,1.40
2023-02-06T19:42:11.895Z,1.40
2023-02-06T19:45:34.868Z,1.40
2023-02-06T19:48:56.815Z,1.50
2023-02-06T19:52:18.977Z,1.50
2023-02-06T19:55:46.414Z,1.40
2023-02-06T19:59:11.738Z,1.50
2023-02-06T20:02:33.422Z,1.40
2023-02-06T20:05:55.145Z,1.40
2023-02-06T20:09:17.718Z,1.40
2023-02-06T20:12:39.465Z,1.40
2023-02-06T20:16:04.263Z,1.40
2023-02-06T20:19:27.190Z,1.40
2023-02-06T20:22:49.170Z,1.40
2023-02-06T20:26:10.763Z,1.40
2023-02-06T20:29:33.273Z,1.40
2023-02-06T20:32:56.295Z,1.40
2023-02-06T20:36:19.220Z,1.40
2023-02-06T20:39:41.597Z,1.40
2023-02-06T20:43:03.189Z,1.40
2023-02-06T20:46:25.173Z,1.30
2023-02-06T20:49:48.271Z,1.30
2023-02-06T20:53:09.864Z,1.30
2023-02-06T20:56:31.484Z,1.30
2023-02-06T20:59:53.095Z,1.30
2023-02-06T21:03:14.720Z,1.30
2023-02-06T21:06:38.360Z,1.30
2023-02-06T21:10:00.376Z,1.20
2023-02-06T21:13:22.095Z,1.20
2023-02-06T21:16:43.706Z,1.20
2023-02-06T21:20:06.226Z,1.20
2023-02-06T21:23:29.215Z,1.20
2023-02-06T21:26:50.828Z,1.20
2023-02-06T21:30:12.933Z,1.20
2023-02-06T21:33:35.092Z,1.20
2023-02-06T21:36:56.691Z,1.20
2023-02-06T21:40:19.622Z,1.20
2023-02-06T21:43:41.543Z,1.20
2023-02-06T21:47:03.228Z,1.20
2023-02-06T21:50:25.111Z,1.20
2023-02-06T21:53:47.139Z,1.20
2023-02-06T21:57:10.125Z,1.20
2023-02-06T22:00:31.725Z,1.10
2023-02-06T22:03:53.474Z,1.20
2023-02-06T22:07:15.080Z,1.10
2023-02-06T22:10:37.095Z,1.10
2023-02-06T22:14:01.612Z,1.10
2023-02-06T22:17:23.397Z,1.10
2023-02-06T22:20:45.028Z,1.10
2023-02-06T22:24:08.552Z,1.10
2023-02-06T22:27:31.889Z,1.20
2023-02-06T22:30:54.931Z,1.20
2023-02-06T22:34:17.477Z,1.10
2023-02-06T22:37:39.068Z,0.90
2023-02-06T22:41:01.120Z,0.80
2023-02-06T22:44:22.990Z,0.80
2023-02-06T22:47:45.999Z,0.60
2023-02-06T22:51:08.972Z,0.50
2023-02-06T22:54:30.607Z,0.50
2023-02-06T22:57:52.322Z,0.40
2023-02-06T23:01:14.281Z,0.30
2023-02-06T23:04:37.241Z,0.20
2023-02-06T23:08:00.629Z,0.10
2023-02-06T23:11:22.274Z,0.10
2023-02-06T23:14:43.928Z,0.00
2023-02-06T23:18:05.598Z,-0.10
2023-02-06T23:21:28.522Z,-0.10
2023-02-06T23:24:50.631Z,-0.10
2023-02-06T23:28:12.344Z,-0.20
2023-02-06T23:31:34.377Z,-0.20
2023-02-06T23:34:56.001Z,-0.20
2023-02-06T23:38:19.291Z,-0.30
2023-02-06T23:41:41.175Z,-0.40
2023-02-06T23:45:02.828Z,-0.40
2023-02-06T23:48:24.942Z,-0.50
2023-02-06T23:51:46.642Z,-0.60
2023-02-06T23:55:09.737Z,-0.60
2023-02-06T23:58:31.325Z,-0.70
